createdAt,value
2019-02-28T00:01:54.133Z,24.70
2019-02-28T00:04:22.316Z,20.80
2019-02-28T00:06:50.528Z,26.10
2019-02-28T00:09:18.734Z,26.80
2019-02-28T00:11:46.923Z,26.00
2019-02-28T00:14:15.154Z,25.87
2019-02-28T00:16:43.367Z,23.40
2019-02-28T00:19:11.583Z,21.47
2019-02-28T00:21:40.655Z,22.37
2019-02-28T00:24:09.544Z,23.50
2019-02-28T00:26:37.761Z,27.77
2019-02-28T00:29:05.990Z,23.30
2019-02-28T00:31:34.172Z,26.10
2019-02-28T00:34:05.364Z,24.37
2019-02-28T00:36:32.275Z,23.40
2019-02-28T00:39:00.747Z,21.83
2019-02-28T00:41:28.964Z,22.10
2019-02-28T00:43:57.924Z,23.87
2019-02-28T00:46:26.253Z,20.47
2019-02-28T00:48:54.431Z,23.13
2019-02-28T00:51:22.676Z,23.30
2019-02-28T00:53:50.891Z,24.03
2019-02-28T00:56:20.737Z,22.70
2019-02-28T00:58:48.988Z,25.77
2019-02-28T01:01:17.176Z,20.93
2019-02-28T01:03:45.403Z,21.07
2019-02-28T01:06:13.584Z,19.37
2019-02-28T01:08:41.805Z,20.77
2019-02-28T01:11:10.323Z,21.40
2019-02-28T01:13:39.917Z,23.03
2019-02-28T01:16:09.093Z,18.90
2019-02-28T01:18:37.271Z,24.20
2019-02-28T01:21:05.489Z,17.30
2019-02-28T01:23:33.670Z,18.37
2019-02-28T01:26:01.878Z,20.70
2019-02-28T01:28:30.082Z,23.20
2019-02-28T01:30:58.302Z,22.60
2019-02-28T01:33:26.513Z,18.93
2019-02-28T01:35:54.688Z,21.80
2019-02-28T01:38:23.946Z,19.07
2019-02-28T01:40:52.865Z,20.10
2019-02-28T01:43:21.069Z,24.93
2019-02-28T01:45:49.246Z,23.60
2019-02-28T01:48:17.465Z,21.50
2019-02-28T01:50:45.673Z,22.87
2019-02-28T01:53:18.683Z,18.37
2019-02-28T01:55:43.805Z,21.97
2019-02-28T01:58:16.276Z,20.00
2019-02-28T02:00:41.878Z,22.20
2019-02-28T02:03:10.194Z,17.17
2019-02-28T02:05:38.456Z,20.00
2019-02-28T02:08:07.417Z,20.47
2019-02-28T02:10:35.805Z,24.13
2019-02-28T02:13:04.339Z,21.80
2019-02-28T02:15:32.601Z,17.80
2019-02-28T02:18:00.780Z,18.70
2019-02-28T02:20:29.017Z,18.97
2019-02-28T02:22:57.196Z,17.97
2019-02-28T02:25:25.434Z,17.87
2019-02-28T02:27:54.039Z,17.60
2019-02-28T02:30:23.113Z,20.47
2019-02-28T02:32:51.628Z,21.13
2019-02-28T02:35:19.896Z,21.17
2019-02-28T02:37:48.101Z,15.97
2019-02-28T02:40:16.577Z,21.30
2019-02-28T02:42:48.416Z,22.77
2019-02-28T02:45:14.854Z,19.23
2019-02-28T02:47:43.034Z,19.33
2019-02-28T02:50:12.224Z,17.80
2019-02-28T02:52:40.498Z,18.53
2019-02-28T02:55:08.759Z,21.00
2019-02-28T02:57:37.002Z,17.70
2019-02-28T03:00:13.346Z,20.50
2019-02-28T03:02:36.657Z,19.90
2019-02-28T03:05:05.529Z,20.10
2019-02-28T03:07:33.768Z,20.90
2019-02-28T03:10:02.036Z,19.47
2019-02-28T03:12:31.592Z,22.63
2019-02-28T03:15:00.503Z,22.87
2019-02-28T03:17:28.862Z,20.20
2019-02-28T03:19:57.065Z,20.13
2019-02-28T03:22:29.760Z,22.13
2019-02-28T03:24:55.202Z,21.37
2019-02-28T03:27:23.382Z,24.70
2019-02-28T03:29:51.645Z,23.13
2019-02-28T03:32:19.858Z,22.10
2019-02-28T03:34:55.393Z,22.90
2019-02-28T03:37:18.017Z,22.17
2019-02-28T03:39:46.268Z,28.10
2019-02-28T03:42:14.464Z,27.67
2019-02-28T03:44:42.726Z,23.10
2019-02-28T03:47:10.943Z,27.03
2019-02-28T03:49:39.154Z,26.60
2019-02-28T03:52:07.380Z,29.53
2019-02-28T03:54:35.601Z,28.93
2019-02-28T03:57:03.817Z,25.73
2019-02-28T03:59:32.282Z,24.63
2019-02-28T04:02:00.493Z,23.70
2019-02-28T04:04:28.677Z,23.80
2019-02-28T04:06:56.945Z,22.67
2019-02-28T04:09:25.162Z,22.60
2019-02-28T04:11:53.420Z,27.67
2019-02-28T04:14:21.613Z,24.43
2019-02-28T04:16:54.141Z,26.40
2019-02-28T04:19:22.630Z,27.47
2019-02-28T04:21:49.641Z,28.27
2019-02-28T04:24:17.853Z,29.13
2019-02-28T04:26:46.041Z,30.20
2019-02-28T04:29:14.286Z,29.77
2019-02-28T04:31:42.501Z,27.50
2019-02-28T04:34:13.384Z,28.93
2019-02-28T04:36:40.629Z,29.60
2019-02-28T04:39:08.932Z,28.97
2019-02-28T04:41:37.149Z,32.40
2019-02-28T04:44:05.328Z,30.30
2019-02-28T04:46:33.539Z,33.30
2019-02-28T04:49:01.726Z,33.77
2019-02-28T04:51:29.966Z,33.40
2019-02-28T04:53:58.179Z,33.70
2019-02-28T04:56:26.470Z,34.93
2019-02-28T04:58:56.449Z,37.23
2019-02-28T05:01:24.569Z,36.30
2019-02-28T05:03:52.814Z,39.10
2019-02-28T05:06:21.817Z,36.93
2019-02-28T05:08:50.243Z,40.23
2019-02-28T05:11:18.479Z,33.73
2019-02-28T05:13:48.766Z,40.10
2019-02-28T05:16:17.665Z,41.10
2019-02-28T05:18:45.905Z,44.70
2019-02-28T05:21:16.604Z,44.73
2019-02-28T05:23:44.086Z,45.73
2019-02-28T05:26:12.267Z,41.87
2019-02-28T05:28:41.340Z,40.70
2019-02-28T05:31:09.773Z,42.97
2019-02-28T05:33:38.432Z,42.87
2019-02-28T05:36:07.941Z,41.37
2019-02-28T05:38:36.160Z,42.90
2019-02-28T05:41:04.367Z,48.10
2019-02-28T05:43:32.951Z,41.67
2019-02-28T05:46:01.281Z,45.23
2019-02-28T05:48:29.479Z,48.60
2019-02-28T05:50:57.724Z,41.30
2019-02-28T05:53:25.911Z,36.97
2019-02-28T05:55:58.808Z,42.77
2019-02-28T05:58:25.452Z,42.20
2019-02-28T06:00:53.636Z,47.63
2019-02-28T06:03:23.236Z,46.00
2019-02-28T06:05:51.453Z,41.13
2019-02-28T06:08:19.653Z,41.83
2019-02-28T06:10:47.963Z,44.60
2019-02-28T06:13:18.279Z,49.27
2019-02-28T06:15:46.068Z,47.17
2019-02-28T06:18:14.251Z,45.53
2019-02-28T06:20:42.463Z,48.23
2019-02-28T06:23:10.652Z,49.83
2019-02-28T06:25:38.868Z,51.50
2019-02-28T06:28:07.084Z,45.57
2019-02-28T06:30:35.296Z,51.77
2019-02-28T06:33:03.517Z,56.90
2019-02-28T06:35:31.773Z,55.90
2019-02-28T06:37:59.948Z,45.77
2019-02-28T06:40:32.616Z,51.37
2019-02-28T06:42:58.088Z,52.17
2019-02-28T06:45:26.305Z,55.20
2019-02-28T06:47:54.489Z,53.17
2019-02-28T06:50:22.730Z,48.53
2019-02-28T06:52:50.973Z,61.43
2019-02-28T06:55:20.900Z,59.20
2019-02-28T06:57:49.201Z,59.83
2019-02-28T07:00:17.413Z,57.77
2019-02-28T07:02:45.599Z,62.43
2019-02-28T07:05:13.821Z,55.47
2019-02-28T07:07:42.075Z,55.47
2019-02-28T07:10:14.033Z,60.53
2019-02-28T07:12:42.220Z,61.37
2019-02-28T07:15:10.719Z,60.60
2019-02-28T07:17:39.007Z,64.70
2019-02-28T07:20:11.572Z,63.67
2019-02-28T07:22:40.156Z,60.57
2019-02-28T07:25:09.512Z,58.20
2019-02-28T07:27:39.916Z,64.23
2019-02-28T07:30:09.657Z,59.63
2019-02-28T07:32:37.843Z,64.20
2019-02-28T07:35:06.353Z,65.63
2019-02-28T07:37:34.548Z,64.10
2019-02-28T07:40:02.927Z,72.33
2019-02-28T07:42:33.691Z,70.30
2019-02-28T07:45:01.122Z,67.53
2019-02-28T07:47:29.319Z,66.83
2019-02-28T07:49:57.535Z,73.70
2019-02-28T07:52:32.373Z,72.07
2019-02-28T07:54:55.911Z,79.83
2019-02-28T07:57:24.152Z,67.90
2019-02-28T07:59:52.401Z,70.80
2019-02-28T08:02:20.620Z,69.07
2019-02-28T08:04:50.668Z,64.37
2019-02-28T08:07:18.730Z,69.53
2019-02-28T08:09:46.957Z,72.10
2019-02-28T08:12:15.204Z,84.97
2019-02-28T08:14:43.553Z,83.67
2019-02-28T08:17:13.373Z,79.13
2019-02-28T08:19:41.661Z,84.00
2019-02-28T08:22:09.893Z,76.53
2019-02-28T08:24:38.076Z,81.30
2019-02-28T08:27:06.269Z,86.60
2019-02-28T08:29:34.460Z,83.47
2019-02-28T08:32:06.783Z,90.03
2019-02-28T08:34:32.584Z,77.83
2019-02-28T08:37:00.800Z,78.50
2019-02-28T08:39:28.990Z,79.77
2019-02-28T08:42:03.014Z,83.37
2019-02-28T08:44:27.169Z,91.50
2019-02-28T08:46:55.375Z,82.47
2019-02-28T08:49:23.588Z,79.10
2019-02-28T08:51:51.802Z,90.37
2019-02-28T08:54:26.323Z,92.73
2019-02-28T08:56:50.789Z,87.80
2019-02-28T08:59:22.365Z,86.53
2019-02-28T09:01:48.898Z,78.87
2019-02-28T09:04:17.104Z,80.70
2019-02-28T09:06:45.328Z,85.33
2019-02-28T09:09:14.654Z,98.50
2019-02-28T09:11:43.133Z,91.83
2019-02-28T09:14:11.358Z,89.77
2019-02-28T09:16:39.852Z,83.97
2019-02-28T09:19:08.535Z,90.40
2019-02-28T09:21:36.753Z,84.37
2019-02-28T09:24:05.018Z,84.57
2019-02-28T09:26:33.305Z,90.33
2019-02-28T09:29:01.521Z,90.80
2019-02-28T09:31:29.785Z,86.77
2019-02-28T09:33:58.868Z,86.70
2019-02-28T09:36:27.997Z,88.17
2019-02-28T09:38:57.214Z,92.30
2019-02-28T09:41:26.128Z,96.30
2019-02-28T09:43:56.839Z,88.30
2019-02-28T09:48:44.157Z,92.10
2019-02-28T09:51:12.335Z,101.70
2019-02-28T09:53:40.580Z,97.57
2019-02-28T09:56:09.467Z,81.93
2019-02-28T09:58:38.331Z,87.17
2019-02-28T10:01:06.525Z,80.17
2019-02-28T10:03:34.770Z,86.53
2019-02-28T10:06:03.065Z,89.23
2019-02-28T10:08:33.484Z,80.57
2019-02-28T10:11:01.181Z,87.00
2019-02-28T10:13:30.902Z,80.30
2019-02-28T10:16:01.102Z,76.00
2019-02-28T10:18:29.333Z,85.17
2019-02-28T10:20:59.015Z,82.80
2019-02-28T10:23:27.559Z,91.23
2019-02-28T10:25:55.778Z,83.97
2019-02-28T10:28:23.984Z,79.90
2019-02-28T10:30:52.168Z,75.90
2019-02-28T10:33:20.375Z,79.70
2019-02-28T10:35:48.599Z,83.50
2019-02-28T10:38:16.901Z,83.40
2019-02-28T10:40:45.131Z,77.67
2019-02-28T10:43:15.612Z,81.13
2019-02-28T10:45:43.252Z,74.27
2019-02-28T10:48:11.468Z,84.37
2019-02-28T10:50:39.689Z,78.60
2019-02-28T10:53:07.898Z,75.20
2019-02-28T10:55:36.356Z,79.60
2019-02-28T10:58:04.548Z,72.77
2019-02-28T11:00:41.080Z,80.57
2019-02-28T11:03:09.302Z,85.67
2019-02-28T11:05:38.653Z,73.50
2019-02-28T11:08:09.802Z,74.80
2019-02-28T11:10:38.618Z,79.90
2019-02-28T11:13:08.375Z,87.60
2019-02-28T11:18:08.579Z,71.40
2019-02-28T11:20:34.408Z,77.13
2019-02-28T11:23:02.798Z,74.23
2019-02-28T11:25:34.644Z,70.00
2019-02-28T11:28:01.142Z,72.50
2019-02-28T11:30:30.863Z,68.47
2019-02-28T11:33:03.061Z,73.50
2019-02-28T11:35:29.556Z,67.07
2019-02-28T11:37:57.850Z,70.70
2019-02-28T11:40:28.381Z,74.60
2019-02-28T11:42:59.503Z,68.60
2019-02-28T11:45:37.310Z,74.23
2019-02-28T11:48:07.093Z,70.23
2019-02-28T11:50:35.279Z,70.70
2019-02-28T11:53:05.916Z,74.67
2019-02-28T11:55:33.372Z,71.10
2019-02-28T11:58:01.659Z,65.77
2019-02-28T12:00:35.920Z,71.57
2019-02-28T12:03:05.498Z,72.47
2019-02-28T12:05:33.517Z,67.30
2019-02-28T12:08:01.733Z,71.30
2019-02-28T12:10:29.963Z,73.13
2019-02-28T12:12:58.151Z,72.67
2019-02-28T12:15:37.956Z,75.10
2019-02-28T12:18:06.740Z,71.30
2019-02-28T12:20:34.918Z,73.90
2019-02-28T12:23:03.318Z,65.70
2019-02-28T12:25:31.568Z,71.73
2019-02-28T12:28:02.749Z,68.37
2019-02-28T12:30:30.640Z,79.73
2019-02-28T12:32:58.840Z,67.27
2019-02-28T12:35:27.032Z,79.20
2019-02-28T12:37:55.353Z,75.63
2019-02-28T12:40:25.107Z,63.17
2019-02-28T12:42:53.344Z,73.37
2019-02-28T12:45:24.403Z,78.97
2019-02-28T12:47:52.970Z,69.47
2019-02-28T12:50:21.178Z,70.27
2019-02-28T12:52:50.133Z,70.23
2019-02-28T12:55:20.760Z,71.03
2019-02-28T12:57:48.970Z,64.77
2019-02-28T13:00:19.948Z,63.35
2019-02-28T13:02:48.645Z,63.55
2019-02-28T13:05:16.848Z,65.60
2019-02-28T13:07:45.067Z,66.67
2019-02-28T13:10:26.742Z,72.45
2019-02-28T13:12:52.509Z,70.03
2019-02-28T13:15:20.897Z,72.00
2019-02-28T13:17:49.181Z,63.67
2019-02-28T13:20:21.445Z,70.93
2019-02-28T13:22:49.657Z,72.87
2019-02-28T13:25:19.398Z,63.63
2019-02-28T13:30:16.112Z,77.60
2019-02-28T13:32:45.289Z,81.90
2019-02-28T13:35:14.674Z,67.17
2019-02-28T13:37:44.750Z,73.17
2019-02-28T13:40:13.973Z,66.63
2019-02-28T13:42:42.389Z,67.40
2019-02-28T13:45:14.877Z,82.73
2019-02-28T13:47:42.143Z,68.70
2019-02-28T13:50:32.566Z,72.40
2019-02-28T13:53:04.509Z,65.70
2019-02-28T13:55:31.203Z,72.40
2019-02-28T13:57:59.491Z,78.03
2019-02-28T14:00:28.801Z,82.40
2019-02-28T14:02:57.858Z,79.93
2019-02-28T14:05:26.076Z,78.57
2019-02-28T14:07:54.314Z,69.80
2019-02-28T14:12:53.189Z,78.40
2019-02-28T14:15:21.294Z,66.47
2019-02-28T14:17:49.533Z,82.47
2019-02-28T14:20:17.788Z,78.87
2019-02-28T14:22:46.625Z,75.13
2019-02-28T14:25:14.909Z,71.23
2019-02-28T14:27:43.204Z,74.40
2019-02-28T14:30:12.597Z,69.77
2019-02-28T14:32:42.274Z,74.67
2019-02-28T14:35:14.928Z,70.83
2019-02-28T14:37:43.113Z,78.23
2019-02-28T14:40:17.907Z,70.57
2019-02-28T14:42:44.824Z,72.70
2019-02-28T14:45:17.440Z,78.13
2019-02-28T14:47:45.658Z,80.07
2019-02-28T14:50:15.378Z,76.10
2019-02-28T14:52:44.243Z,77.67
2019-02-28T14:55:13.799Z,69.60
2019-02-28T14:57:42.010Z,73.70
2019-02-28T15:00:11.838Z,69.90
2019-02-28T15:02:40.048Z,77.87
2019-02-28T15:05:09.538Z,76.90
2019-02-28T15:07:38.682Z,67.90
2019-02-28T15:10:09.482Z,78.30
2019-02-28T15:12:37.703Z,79.30
2019-02-28T15:15:07.466Z,70.53
2019-02-28T15:17:38.701Z,75.50
2019-02-28T15:20:06.576Z,84.83
2019-02-28T15:22:34.765Z,81.43
2019-02-28T15:25:04.384Z,85.23
2019-02-28T15:27:32.730Z,84.37
2019-02-28T15:30:00.945Z,89.50
2019-02-28T15:32:29.175Z,78.97
2019-02-28T15:34:57.352Z,86.00
2019-02-28T15:37:25.601Z,80.80
2019-02-28T15:39:53.785Z,83.93
2019-02-28T15:42:21.996Z,76.20
2019-02-28T15:44:50.222Z,85.97
2019-02-28T15:47:19.390Z,80.07
2019-02-28T15:49:48.338Z,85.73
2019-02-28T15:52:16.549Z,85.67
2019-02-28T15:54:44.772Z,80.20
2019-02-28T15:57:12.957Z,88.57
2019-02-28T15:59:41.234Z,82.27
2019-02-28T16:02:09.492Z,85.57
2019-02-28T16:04:37.712Z,79.50
2019-02-28T16:07:05.941Z,92.30
2019-02-28T16:09:34.153Z,94.67
2019-02-28T16:12:02.454Z,82.67
2019-02-28T16:14:31.552Z,78.33
2019-02-28T16:17:03.392Z,81.30
2019-02-28T16:19:30.530Z,79.90
2019-02-28T16:21:58.716Z,83.43
2019-02-28T16:24:27.014Z,82.40
2019-02-28T16:26:56.746Z,94.07
2019-02-28T16:29:25.138Z,77.27
2019-02-28T16:31:53.417Z,79.93
2019-02-28T16:34:21.649Z,84.43
2019-02-28T16:36:49.919Z,96.50
2019-02-28T16:39:18.312Z,91.80
2019-02-28T16:41:46.656Z,94.83
2019-02-28T16:44:14.857Z,91.20
2019-02-28T16:46:43.125Z,86.33
2019-02-28T16:49:11.345Z,100.57
2019-02-28T16:51:39.562Z,107.00
2019-02-28T16:54:07.777Z,91.87
2019-02-28T16:56:37.609Z,99.10
2019-02-28T16:59:05.957Z,105.40
2019-02-28T17:01:34.250Z,100.57
2019-02-28T17:04:02.446Z,98.77
2019-02-28T17:06:32.601Z,112.60
2019-02-28T17:09:02.320Z,110.90
2019-02-28T17:11:30.543Z,113.27
2019-02-28T17:14:03.111Z,116.53
2019-02-28T17:16:37.095Z,119.30
2019-02-28T17:19:05.820Z,124.77
2019-02-28T17:21:34.069Z,120.20
2019-02-28T17:24:02.256Z,121.57
2019-02-28T17:26:34.818Z,110.57
2019-02-28T17:29:11.648Z,110.60
2019-02-28T17:31:44.440Z,111.80
2019-02-28T17:34:13.657Z,121.50
2019-02-28T17:36:44.103Z,122.53
2019-02-28T17:39:14.912Z,115.67
2019-02-28T17:41:41.682Z,117.87
2019-02-28T17:44:11.489Z,123.87
2019-02-28T17:46:39.681Z,112.47
2019-02-28T17:49:26.401Z,112.70
2019-02-28T17:51:58.508Z,112.50
2019-02-28T17:54:31.392Z,123.17
2019-02-28T17:57:07.408Z,118.77
2019-02-28T17:59:46.626Z,107.90
2019-02-28T18:02:28.672Z,122.17
2019-02-28T18:05:10.325Z,114.63
2019-02-28T18:07:57.781Z,129.03
2019-02-28T18:10:45.103Z,115.40
2019-02-28T18:13:21.165Z,123.43
2019-02-28T18:16:00.005Z,123.33
2019-02-28T18:18:35.496Z,123.03
2019-02-28T18:21:10.960Z,127.37
2019-02-28T18:23:40.729Z,131.93
2019-02-28T18:26:10.497Z,123.00
2019-02-28T18:28:40.257Z,128.07
2019-02-28T18:31:09.195Z,132.87
2019-02-28T18:33:38.556Z,127.60
2019-02-28T18:36:08.339Z,126.20
2019-02-28T18:38:37.452Z,121.27
2019-02-28T18:41:06.551Z,111.93
2019-02-28T18:43:34.900Z,104.33
2019-02-28T18:46:03.156Z,119.30
2019-02-28T18:48:31.409Z,115.53
2019-02-28T18:50:59.625Z,125.03
2019-02-28T18:53:27.845Z,116.67
2019-02-28T18:55:56.260Z,112.43
2019-02-28T18:58:24.449Z,125.60
2019-02-28T19:00:52.681Z,127.57
2019-02-28T19:03:20.880Z,118.47
2019-02-28T19:05:49.110Z,115.80
2019-02-28T19:08:17.453Z,118.70
2019-02-28T19:10:45.669Z,113.13
2019-02-28T19:13:13.889Z,122.43
2019-02-28T19:15:42.133Z,120.00
2019-02-28T19:18:10.420Z,119.80
2019-02-28T19:20:38.645Z,124.90
2019-02-28T19:23:06.901Z,138.63
2019-02-28T19:25:35.121Z,124.40
2019-02-28T19:28:03.335Z,117.20
2019-02-28T19:30:31.613Z,132.27
2019-02-28T19:32:59.801Z,135.63
2019-02-28T19:35:28.026Z,116.20
2019-02-28T19:37:56.261Z,132.60
2019-02-28T19:40:24.480Z,120.53
2019-02-28T19:42:52.701Z,128.37
2019-02-28T19:45:22.713Z,120.43
2019-02-28T19:47:50.963Z,125.27
2019-02-28T19:50:19.177Z,130.70
2019-02-28T19:52:47.538Z,138.40
2019-02-28T19:55:15.795Z,130.13
2019-02-28T19:57:44.023Z,128.00
2019-02-28T20:00:13.607Z,137.40
2019-02-28T20:02:41.799Z,134.93
2019-02-28T20:05:10.581Z,144.03
2019-02-28T20:07:38.814Z,130.47
2019-02-28T20:10:09.001Z,128.27
2019-02-28T20:12:37.184Z,132.63
2019-02-28T20:15:06.410Z,129.23
2019-02-28T20:17:34.628Z,124.13
2019-02-28T20:20:03.250Z,131.27
2019-02-28T20:22:31.436Z,131.53
2019-02-28T20:24:59.674Z,133.33
2019-02-28T20:27:27.862Z,150.87
2019-02-28T20:29:56.089Z,130.40
2019-02-28T20:32:24.332Z,126.37
2019-02-28T20:34:52.553Z,131.53
2019-02-28T20:37:20.802Z,141.47
2019-02-28T20:39:48.992Z,134.37
2019-02-28T20:42:17.220Z,116.80
2019-02-28T20:44:45.418Z,123.47
2019-02-28T20:47:13.641Z,126.37
2019-02-28T20:49:41.868Z,120.00
2019-02-28T20:52:10.092Z,129.37
2019-02-28T20:54:38.279Z,131.57
2019-02-28T20:57:06.479Z,117.13
2019-02-28T20:59:34.678Z,129.07
2019-02-28T21:02:02.905Z,110.93
2019-02-28T21:04:31.197Z,117.93
2019-02-28T21:06:59.391Z,107.43
2019-02-28T21:09:27.612Z,115.73
2019-02-28T21:11:55.845Z,128.23
2019-02-28T21:14:24.061Z,125.30
2019-02-28T21:16:52.294Z,109.23
2019-02-28T21:19:20.485Z,119.87
2019-02-28T21:21:48.708Z,116.10
2019-02-28T21:24:16.899Z,112.13
2019-02-28T21:26:45.157Z,115.40
2019-02-28T21:29:13.378Z,114.50
2019-02-28T21:31:50.601Z,113.43
2019-02-28T21:34:18.829Z,108.50
2019-02-28T21:36:47.169Z,127.43
2019-02-28T21:39:15.389Z,109.90
2019-02-28T21:41:43.576Z,117.90
2019-02-28T21:44:11.907Z,117.07
2019-02-28T21:46:40.117Z,97.40
2019-02-28T21:49:08.314Z,110.30
2019-02-28T21:51:36.538Z,106.77
2019-02-28T21:54:04.741Z,95.20
2019-02-28T21:56:32.961Z,103.63
2019-02-28T21:59:01.156Z,96.73
2019-02-28T22:01:29.368Z,96.57
2019-02-28T22:03:57.556Z,88.40
2019-02-28T22:06:25.796Z,92.43
2019-02-28T22:08:53.976Z,86.30
2019-02-28T22:11:22.222Z,90.93
2019-02-28T22:13:50.436Z,91.77
2019-02-28T22:16:18.664Z,88.77
2019-02-28T22:18:46.848Z,85.10
2019-02-28T22:21:15.071Z,88.27
2019-02-28T22:23:43.314Z,88.90
2019-02-28T22:26:11.553Z,77.73
2019-02-28T22:28:39.799Z,82.20
2019-02-28T22:31:12.327Z,85.13
2019-02-28T22:33:42.186Z,83.43
2019-02-28T22:36:12.054Z,77.93
2019-02-28T22:38:40.297Z,78.77
2019-02-28T22:41:08.582Z,77.93
2019-02-28T22:43:36.826Z,84.53
2019-02-28T22:46:05.012Z,81.13
2019-02-28T22:48:33.224Z,78.03
2019-02-28T22:51:01.439Z,84.67
2019-02-28T22:53:29.680Z,87.70
2019-02-28T22:55:57.964Z,81.93
2019-02-28T22:58:26.216Z,82.67
2019-02-28T23:01:00.548Z,74.87
2019-02-28T23:03:29.936Z,83.70
2019-02-28T23:05:58.460Z,76.77
2019-02-28T23:08:26.646Z,87.33
2019-02-28T23:10:54.893Z,72.90
2019-02-28T23:13:23.077Z,72.80
2019-02-28T23:15:51.292Z,80.90
2019-02-28T23:18:19.509Z,78.53
2019-02-28T23:20:47.716Z,80.30
2019-02-28T23:23:15.939Z,80.67
2019-02-28T23:25:44.133Z,76.83
2019-02-28T23:28:13.491Z,80.50
2019-02-28T23:31:00.106Z,83.37
2019-02-28T23:33:28.284Z,77.67
2019-02-28T23:35:56.492Z,84.47
2019-02-28T23:38:24.749Z,80.13
2019-02-28T23:40:54.501Z,73.67
2019-02-28T23:43:22.685Z,87.90
2019-02-28T23:45:50.929Z,77.80
2019-02-28T23:48:19.155Z,78.73
2019-02-28T23:50:47.375Z,89.93
2019-02-28T23:53:15.721Z,86.90
2019-02-28T23:55:43.905Z,82.97
2019-02-28T23:58:12.099Z,77.17
